LPMA/FNC METAR and TAF weather

Enter ICAO airport designator
Station Type Date Time Source
LPMA METAR 2021/05/15 22:30 UTC NOAA

LPMA 152230Z 36023KT 330V030 9999 FEW015 19/13 Q1020


Station Type Date Time Source
LPMA Decoded METAR 2021/05/15 22:30 UTC NOAA

Aeroporto Da Madeira, Portugal (LPMA) 32-41-52N 016-46-28W
May 15, 2021 - 06:30 PM EDT / 2021.05.15 2230 UTC
Wind: from the N (360 degrees) at 26 MPH (23 KT) (direction variable):0
Visibility: greater than 7 mile(s):0
Sky conditions: mostly clear
Temperature: 66 F (19 C)
Dew Point: 55 F (13 C)
Relative Humidity: 68%
Pressure (altimeter): 30.12 in. Hg (1020 hPa)
ob: LPMA 152230Z 36023KT 330V030 9999 FEW015 19/13 Q1020
cycle: 22

Station Type Date Time Source
LPMA TAF 2021/05/15 18:18 UTC NOAA

TAF LPMA 151700Z 1518/1618 01017KT 9999 SCT015
TEMPO 1518/1618 01020G32KT

Example: see airport list